Pagina principale
METAR-TAF:

METAR-TAF

Aeroporti :

Aeroporto di Trapani-Birgi

Trapani, Italia

latitudine: 37-55N, longitudine: 012-30E, altezza: 7 m

Osservazione

Il bollettino è stato emesso 52 minuti fa, alle 08:55 UTC
Vento 7 kt da est/sud-est
Temperature 24°C
Umidità 57%
Pressione 1014 hPa
Visibilità 10 km o più
Poco nuvoloso ad un'altezza di 2400 ft

METAR: LICT 170855Z 11007KT 9999 FEW024 24/15 Q1014 RMK SCT SCT200 VIS MIN 9999 WIND THR13 08009KT BLU

Ora: 11:47 (09:47 UTC)

Previsione

Il bollettino è stato emesso 1 ora e 47 minuti fa, alle 08:00 UTC
Previsione valida dal 17 alle 09 UTC al 17 alle 18 UTC
Vento 10 kt da sud-est
Visibilità 10 km o più
Poco nuvoloso ad un'altezza di 2000 ft
Temporaneamente
dal 17 alle 12 UTC al 17 alle 15 UTC
Poco nuvoloso ad un'altezza di 2000 ft, Cumulonembo.
Nubi sparse ad un'altezza di 2200 ft

TAF: LICT 170800Z 1709/1718 14010KT 9999 FEW020 TEMPO 1712/1715 FEW020CB SCT022

Osservazioni e previsioni meteorologiche di più di 4000 aeroporti (messaggi METAR e TAF).

Le stazioni disponibili sono rappresentate dai dischi gialli e rossi sulla carta.

Puntare il mouse per vedere il nome della stazione.

Clicca sopra per visualizzare le osservazioni e previsioni meteorologiche.

Per cambiare la mappa : fare clic sui pulsanti verdi con una croce nera per ingrandire, il pulsante verde con un trattino per diminuire, o sulla freccia verde per le mappe adiacenti.


METAR-TAF: